sensor_id;sensor_type;location;lat;lon;timestamp;temperature;humidity
80695;DHT22;70059;42.702;23.312;2023-05-10T00:02:16;11.30;79.40
80695;DHT22;70059;42.702;23.312;2023-05-10T00:04:42;11.20;79.50
80695;DHT22;70059;42.702;23.312;2023-05-10T00:07:12;11.20;80.00
80695;DHT22;70059;42.702;23.312;2023-05-10T00:09:46;11.30;79.80
80695;DHT22;70059;42.702;23.312;2023-05-10T00:12:12;11.30;79.80
80695;DHT22;70059;42.702;23.312;2023-05-10T00:14:37;11.40;79.50
80695;DHT22;70059;42.702;23.312;2023-05-10T00:17:03;11.40;79.20
80695;DHT22;70059;42.702;23.312;2023-05-10T00:19:29;11.40;79.10
80695;DHT22;70059;42.702;23.312;2023-05-10T00:21:54;11.30;79.20
80695;DHT22;70059;42.702;23.312;2023-05-10T00:24:20;11.30;79.20
80695;DHT22;70059;42.702;23.312;2023-05-10T00:26:45;11.30;79.10
80695;DHT22;70059;42.702;23.312;2023-05-10T00:29:11;11.20;78.60
80695;DHT22;70059;42.702;23.312;2023-05-10T00:31:37;11.20;79.10
80695;DHT22;70059;42.702;23.312;2023-05-10T00:34:02;11.20;78.70
80695;DHT22;70059;42.702;23.312;2023-05-10T00:36:28;11.00;79.10
80695;DHT22;70059;42.702;23.312;2023-05-10T00:38:54;11.00;79.00
80695;DHT22;70059;42.702;23.312;2023-05-10T00:41:19;11.00;79.30
80695;DHT22;70059;42.702;23.312;2023-05-10T00:43:46;11.00;79.40
80695;DHT22;70059;42.702;23.312;2023-05-10T00:46:12;10.90;79.50
80695;DHT22;70059;42.702;23.312;2023-05-10T00:48:39;10.90;79.30
80695;DHT22;70059;42.702;23.312;2023-05-10T00:51:05;10.90;80.00
80695;DHT22;70059;42.702;23.312;2023-05-10T00:53:32;10.70;79.10
80695;DHT22;70059;42.702;23.312;2023-05-10T00:55:59;10.70;80.40
80695;DHT22;70059;42.702;23.312;2023-05-10T00:58:25;10.50;81.10
80695;DHT22;70059;42.702;23.312;2023-05-10T01:01:00;10.40;80.80
80695;DHT22;70059;42.702;23.312;2023-05-10T01:03:27;10.40;80.60
80695;DHT22;70059;42.702;23.312;2023-05-10T01:05:53;10.40;81.50
80695;DHT22;70059;42.702;23.312;2023-05-10T01:08:19;10.30;81.50
80695;DHT22;70059;42.702;23.312;2023-05-10T01:10:45;10.30;82.90
80695;DHT22;70059;42.702;23.312;2023-05-10T01:13:11;10.40;82.00
80695;DHT22;70059;42.702;23.312;2023-05-10T01:15:38;10.30;81.40
80695;DHT22;70059;42.702;23.312;2023-05-10T01:18:04;10.20;81.70
80695;DHT22;70059;42.702;23.312;2023-05-10T01:20:36;10.10;82.20
80695;DHT22;70059;42.702;23.312;2023-05-10T01:31:03;10.10;82.30
80695;DHT22;70059;42.702;23.312;2023-05-10T01:33:39;10.00;81.20
80695;DHT22;70059;42.702;23.312;2023-05-10T01:38:43;9.80;81.80
80695;DHT22;70059;42.702;23.312;2023-05-10T01:44:18;9.70;82.00
80695;DHT22;70059;42.702;23.312;2023-05-10T01:46:50;9.70;83.40
80695;DHT22;70059;42.702;23.312;2023-05-10T01:49:31;9.70;82.40
80695;DHT22;70059;42.702;23.312;2023-05-10T01:52:07;9.50;83.40
80695;DHT22;70059;42.702;23.312;2023-05-10T01:54:35;9.50;84.10
80695;DHT22;70059;42.702;23.312;2023-05-10T01:57:05;9.40;83.00
80695;DHT22;70059;42.702;23.312;2023-05-10T01:59:35;9.50;84.40
80695;DHT22;70059;42.702;23.312;2023-05-10T02:02:02;9.40;82.70
80695;DHT22;70059;42.702;23.312;2023-05-10T02:04:30;9.30;84.20
80695;DHT22;70059;42.702;23.312;2023-05-10T02:06:57;9.20;84.90
80695;DHT22;70059;42.702;23.312;2023-05-10T02:09:24;9.20;85.00
80695;DHT22;70059;42.702;23.312;2023-05-10T02:11:51;9.30;85.80
80695;DHT22;70059;42.702;23.312;2023-05-10T02:14:18;9.30;85.10
80695;DHT22;70059;42.702;23.312;2023-05-10T02:16:46;9.50;85.10
80695;DHT22;70059;42.702;23.312;2023-05-10T02:19:13;9.50;83.50
80695;DHT22;70059;42.702;23.312;2023-05-10T02:21:40;9.60;83.10
80695;DHT22;70059;42.702;23.312;2023-05-10T02:24:07;9.50;83.10
80695;DHT22;70059;42.702;23.312;2023-05-10T02:26:35;9.40;81.80
80695;DHT22;70059;42.702;23.312;2023-05-10T02:29:02;9.30;79.70
80695;DHT22;70059;42.702;23.312;2023-05-10T02:31:32;9.00;79.20
80695;DHT22;70059;42.702;23.312;2023-05-10T02:34:00;8.80;80.90
80695;DHT22;70059;42.702;23.312;2023-05-10T02:36:27;8.80;81.40
80695;DHT22;70059;42.702;23.312;2023-05-10T02:38:54;8.70;80.60
80695;DHT22;70059;42.702;23.312;2023-05-10T02:41:22;8.60;80.80
80695;DHT22;70059;42.702;23.312;2023-05-10T02:43:50;8.40;80.40
80695;DHT22;70059;42.702;23.312;2023-05-10T02:46:17;8.40;81.00
80695;DHT22;70059;42.702;23.312;2023-05-10T02:48:43;8.30;79.70
80695;DHT22;70059;42.702;23.312;2023-05-10T02:51:12;8.20;80.20
80695;DHT22;70059;42.702;23.312;2023-05-10T02:53:41;8.10;80.80
80695;DHT22;70059;42.702;23.312;2023-05-10T02:56:15;8.00;80.60
80695;DHT22;70059;42.702;23.312;2023-05-10T02:58:42;8.00;80.60
80695;DHT22;70059;42.702;23.312;2023-05-10T03:01:08;8.00;80.60
80695;DHT22;70059;42.702;23.312;2023-05-10T03:03:34;8.10;80.80
80695;DHT22;70059;42.702;23.312;2023-05-10T03:05:59;8.10;80.80
80695;DHT22;70059;42.702;23.312;2023-05-10T03:08:26;8.20;80.60
80695;DHT22;70059;42.702;23.312;2023-05-10T03:16:29;8.40;78.10
80695;DHT22;70059;42.702;23.312;2023-05-10T03:21:44;8.60;76.20
80695;DHT22;70059;42.702;23.312;2023-05-10T03:24:13;8.50;76.30
80695;DHT22;70059;42.702;23.312;2023-05-10T03:26:43;8.40;77.10
80695;DHT22;70059;42.702;23.312;2023-05-10T03:29:12;8.50;78.10
80695;DHT22;70059;42.702;23.312;2023-05-10T03:31:41;8.50;78.70
80695;DHT22;70059;42.702;23.312;2023-05-10T03:34:06;8.60;78.80
80695;DHT22;70059;42.702;23.312;2023-05-10T03:36:32;8.70;77.80
80695;DHT22;70059;42.702;23.312;2023-05-10T03:38:58;8.70;75.40
80695;DHT22;70059;42.702;23.312;2023-05-10T03:41:24;8.80;75.50
80695;DHT22;70059;42.702;23.312;2023-05-10T03:43:51;8.90;74.70
80695;DHT22;70059;42.702;23.312;2023-05-10T03:46:16;8.90;74.70
80695;DHT22;70059;42.702;23.312;2023-05-10T03:48:42;9.10;75.50
80695;DHT22;70059;42.702;23.312;2023-05-10T03:51:08;9.20;72.70
80695;DHT22;70059;42.702;23.312;2023-05-10T03:53:34;9.20;73.90
80695;DHT22;70059;42.702;23.312;2023-05-10T03:56:00;9.20;72.50
80695;DHT22;70059;42.702;23.312;2023-05-10T03:58:25;9.00;73.60
80695;DHT22;70059;42.702;23.312;2023-05-10T04:00:52;9.00;72.90
80695;DHT22;70059;42.702;23.312;2023-05-10T04:03:17;9.10;74.10
80695;DHT22;70059;42.702;23.312;2023-05-10T04:05:43;9.00;72.40
80695;DHT22;70059;42.702;23.312;2023-05-10T04:16:31;8.90;75.30
80695;DHT22;70059;42.702;23.312;2023-05-10T04:19:00;9.10;74.30
80695;DHT22;70059;42.702;23.312;2023-05-10T04:21:26;9.20;73.80
80695;DHT22;70059;42.702;23.312;2023-05-10T04:23:54;9.30;72.80
80695;DHT22;70059;42.702;23.312;2023-05-10T04:26:27;9.20;73.70
80695;DHT22;70059;42.702;23.312;2023-05-10T04:29:02;9.10;73.00
80695;DHT22;70059;42.702;23.312;2023-05-10T04:31:38;9.10;73.50
80695;DHT22;70059;42.702;23.312;2023-05-10T04:34:04;9.30;73.80
80695;DHT22;70059;42.702;23.312;2023-05-10T04:36:30;9.40;73.10
80695;DHT22;70059;42.702;23.312;2023-05-10T04:38:58;9.50;71.70
80695;DHT22;70059;42.702;23.312;2023-05-10T04:41:23;9.50;72.00
80695;DHT22;70059;42.702;23.312;2023-05-10T04:43:51;9.60;72.10
80695;DHT22;70059;42.702;23.312;2023-05-10T04:46:19;9.40;71.50
80695;DHT22;70059;42.702;23.312;2023-05-10T04:48:48;9.50;72.00
80695;DHT22;70059;42.702;23.312;2023-05-10T04:51:19;9.60;71.00
80695;DHT22;70059;42.702;23.312;2023-05-10T04:53:45;9.60;71.00
80695;DHT22;70059;42.702;23.312;2023-05-10T04:56:16;9.60;71.20
80695;DHT22;70059;42.702;23.312;2023-05-10T04:58:42;9.80;71.40
80695;DHT22;70059;42.702;23.312;2023-05-10T05:01:08;9.80;70.30
80695;DHT22;70059;42.702;23.312;2023-05-10T05:03:36;9.80;69.80
80695;DHT22;70059;42.702;23.312;2023-05-10T05:06:06;9.80;69.80
80695;DHT22;70059;42.702;23.312;2023-05-10T05:08:32;9.60;70.00
80695;DHT22;70059;42.702;23.312;2023-05-10T05:11:14;9.70;71.60
80695;DHT22;70059;42.702;23.312;2023-05-10T05:13:40;9.90;71.00
80695;DHT22;70059;42.702;23.312;2023-05-10T05:16:09;10.00;70.50
80695;DHT22;70059;42.702;23.312;2023-05-10T05:21:15;10.30;68.20
80695;DHT22;70059;42.702;23.312;2023-05-10T05:30:12;9.70;70.80
80695;DHT22;70059;42.702;23.312;2023-05-10T05:32:38;9.90;72.20
80695;DHT22;70059;42.702;23.312;2023-05-10T05:35:04;9.90;71.30
80695;DHT22;70059;42.702;23.312;2023-05-10T05:40:52;9.70;72.10
80695;DHT22;70059;42.702;23.312;2023-05-10T05:46:39;10.10;73.00
80695;DHT22;70059;42.702;23.312;2023-05-10T05:52:27;9.60;71.40
80695;DHT22;70059;42.702;23.312;2023-05-10T05:54:52;9.70;73.10
80695;DHT22;70059;42.702;23.312;2023-05-10T06:00:40;9.90;71.90
80695;DHT22;70059;42.702;23.312;2023-05-10T06:06:29;9.80;73.40
80695;DHT22;70059;42.702;23.312;2023-05-10T06:12:23;10.00;71.40
80695;DHT22;70059;42.702;23.312;2023-05-10T06:18:10;9.90;73.50
80695;DHT22;70059;42.702;23.312;2023-05-10T06:21:00;10.10;72.80
80695;DHT22;70059;42.702;23.312;2023-05-10T06:23:26;10.20;72.10
80695;DHT22;70059;42.702;23.312;2023-05-10T06:25:52;10.20;70.60
80695;DHT22;70059;42.702;23.312;2023-05-10T06:31:40;10.20;71.60
80695;DHT22;70059;42.702;23.312;2023-05-10T06:34:06;10.30;71.30
80695;DHT22;70059;42.702;23.312;2023-05-10T06:36:33;10.50;70.20
80695;DHT22;70059;42.702;23.312;2023-05-10T06:38:59;10.50;67.90
80695;DHT22;70059;42.702;23.312;2023-05-10T06:41:24;10.20;68.50
80695;DHT22;70059;42.702;23.312;2023-05-10T06:50:40;9.80;70.80
80695;DHT22;70059;42.702;23.312;2023-05-10T06:56:09;10.20;69.70
80695;DHT22;70059;42.702;23.312;2023-05-10T07:01:56;10.00;69.40
80695;DHT22;70059;42.702;23.312;2023-05-10T07:04:41;10.00;69.30
80695;DHT22;70059;42.702;23.312;2023-05-10T07:10:28;9.90;68.00
80695;DHT22;70059;42.702;23.312;2023-05-10T07:16:16;9.60;70.30
80695;DHT22;70059;42.702;23.312;2023-05-10T07:22:03;9.80;69.20
80695;DHT22;70059;42.702;23.312;2023-05-10T07:24:29;9.90;68.40
80695;DHT22;70059;42.702;23.312;2023-05-10T07:30:18;10.10;69.20
80695;DHT22;70059;42.702;23.312;2023-05-10T07:36:12;9.80;67.00
80695;DHT22;70059;42.702;23.312;2023-05-10T07:38:38;9.60;68.50
80695;DHT22;70059;42.702;23.312;2023-05-10T07:41:03;9.60;69.40
80695;DHT22;70059;42.702;23.312;2023-05-10T07:46:51;10.00;66.20
80695;DHT22;70059;42.702;23.312;2023-05-10T07:52:39;9.90;66.80
80695;DHT22;70059;42.702;23.312;2023-05-10T07:58:33;10.10;66.90
80695;DHT22;70059;42.702;23.312;2023-05-10T08:01:06;10.30;65.80
80695;DHT22;70059;42.702;23.312;2023-05-10T08:06:54;10.40;66.20
80695;DHT22;70059;42.702;23.312;2023-05-10T08:09:19;10.60;66.60
80695;DHT22;70059;42.702;23.312;2023-05-10T08:11:49;10.40;63.80
80695;DHT22;70059;42.702;23.312;2023-05-10T08:14:15;10.50;64.90
80695;DHT22;70059;42.702;23.312;2023-05-10T08:16:40;10.80;64.40
80695;DHT22;70059;42.702;23.312;2023-05-10T08:22:28;11.10;62.10
80695;DHT22;70059;42.702;23.312;2023-05-10T08:24:54;10.70;62.40
80695;DHT22;70059;42.702;23.312;2023-05-10T08:27:20;10.70;63.90
80695;DHT22;70059;42.702;23.312;2023-05-10T08:29:45;10.60;64.20
80695;DHT22;70059;42.702;23.312;2023-05-10T08:32:17;10.50;65.80
80695;DHT22;70059;42.702;23.312;2023-05-10T08:34:43;10.60;65.20
80695;DHT22;70059;42.702;23.312;2023-05-10T08:40:31;10.70;66.60
80695;DHT22;70059;42.702;23.312;2023-05-10T08:46:20;10.60;67.90
80695;DHT22;70059;42.702;23.312;2023-05-10T08:52:09;10.20;68.60
80695;DHT22;70059;42.702;23.312;2023-05-10T08:54:37;10.30;69.10
80695;DHT22;70059;42.702;23.312;2023-05-10T09:00:25;10.40;68.50
80695;DHT22;70059;42.702;23.312;2023-05-10T09:02:51;10.50;67.30
80695;DHT22;70059;42.702;23.312;2023-05-10T09:08:41;10.80;67.30
80695;DHT22;70059;42.702;23.312;2023-05-10T09:11:09;10.80;63.90
80695;DHT22;70059;42.702;23.312;2023-05-10T09:17:04;11.20;65.60
80695;DHT22;70059;42.702;23.312;2023-05-10T09:19:36;11.70;62.60
80695;DHT22;70059;42.702;23.312;2023-05-10T09:22:05;11.60;60.30
80695;DHT22;70059;42.702;23.312;2023-05-10T09:33:51;10.70;65.00
80695;DHT22;70059;42.702;23.312;2023-05-10T09:36:24;10.90;64.30
80695;DHT22;70059;42.702;23.312;2023-05-10T09:38:52;10.70;65.00
80695;DHT22;70059;42.702;23.312;2023-05-10T09:41:33;10.60;64.60
80695;DHT22;70059;42.702;23.312;2023-05-10T09:47:03;10.20;66.70
80695;DHT22;70059;42.702;23.312;2023-05-10T09:49:37;10.40;67.00
80695;DHT22;70059;42.702;23.312;2023-05-10T09:52:13;10.50;66.30
80695;DHT22;70059;42.702;23.312;2023-05-10T09:54:52;10.80;64.60
80695;DHT22;70059;42.702;23.312;2023-05-10T09:57:29;11.00;64.70
80695;DHT22;70059;42.702;23.312;2023-05-10T09:59:55;10.70;64.50
80695;DHT22;70059;42.702;23.312;2023-05-10T10:17:20;11.20;63.20
80695;DHT22;70059;42.702;23.312;2023-05-10T10:20:14;11.10;64.20
80695;DHT22;70059;42.702;23.312;2023-05-10T10:22:41;10.90;64.30
80695;DHT22;70059;42.702;23.312;2023-05-10T10:25:11;11.20;64.00
80695;DHT22;70059;42.702;23.312;2023-05-10T10:30:46;11.10;63.10
80695;DHT22;70059;42.702;23.312;2023-05-10T10:33:35;11.20;64.10
80695;DHT22;70059;42.702;23.312;2023-05-10T10:36:04;11.20;64.10
80695;DHT22;70059;42.702;23.312;2023-05-10T10:52:35;12.00;60.50
80695;DHT22;70059;42.702;23.312;2023-05-10T10:55:04;11.60;60.90
80695;DHT22;70059;42.702;23.312;2023-05-10T10:57:43;11.60;61.50
80695;DHT22;70059;42.702;23.312;2023-05-10T11:00:20;11.60;61.00
80695;DHT22;70059;42.702;23.312;2023-05-10T11:02:48;11.50;62.30
80695;DHT22;70059;42.702;23.312;2023-05-10T11:08:12;12.00;60.00
80695;DHT22;70059;42.702;23.312;2023-05-10T11:10:38;11.60;60.50
80695;DHT22;70059;42.702;23.312;2023-05-10T11:13:08;11.60;61.50
80695;DHT22;70059;42.702;23.312;2023-05-10T11:15:57;11.70;61.30
80695;DHT22;70059;42.702;23.312;2023-05-10T11:18:36;12.10;59.90
80695;DHT22;70059;42.702;23.312;2023-05-10T11:21:03;12.30;59.50
80695;DHT22;70059;42.702;23.312;2023-05-10T11:23:54;12.20;59.50
80695;DHT22;70059;42.702;23.312;2023-05-10T11:26:38;12.30;59.90
80695;DHT22;70059;42.702;23.312;2023-05-10T11:29:09;12.10;59.80
80695;DHT22;70059;42.702;23.312;2023-05-10T11:31:45;12.10;59.80
80695;DHT22;70059;42.702;23.312;2023-05-10T11:34:23;11.80;60.90
80695;DHT22;70059;42.702;23.312;2023-05-10T11:36:57;11.90;60.50
80695;DHT22;70059;42.702;23.312;2023-05-10T11:39:27;11.90;61.30
80695;DHT22;70059;42.702;23.312;2023-05-10T11:41:55;11.60;61.20
80695;DHT22;70059;42.702;23.312;2023-05-10T11:44:21;11.50;62.20
80695;DHT22;70059;42.702;23.312;2023-05-10T11:46:50;11.40;62.90
80695;DHT22;70059;42.702;23.312;2023-05-10T11:49:16;11.40;63.30
80695;DHT22;70059;42.702;23.312;2023-05-10T11:51:53;11.70;63.30
80695;DHT22;70059;42.702;23.312;2023-05-10T11:54:32;11.50;62.10
80695;DHT22;70059;42.702;23.312;2023-05-10T11:57:00;11.20;63.70
80695;DHT22;70059;42.702;23.312;2023-05-10T11:59:29;11.40;63.80
80695;DHT22;70059;42.702;23.312;2023-05-10T12:01:56;11.30;63.50
80695;DHT22;70059;42.702;23.312;2023-05-10T12:04:26;11.50;63.30
80695;DHT22;70059;42.702;23.312;2023-05-10T12:07:04;11.60;62.90
80695;DHT22;70059;42.702;23.312;2023-05-10T12:09:37;11.40;63.80
80695;DHT22;70059;42.702;23.312;2023-05-10T12:12:45;11.60;62.70
80695;DHT22;70059;42.702;23.312;2023-05-10T12:15:23;11.60;62.70
80695;DHT22;70059;42.702;23.312;2023-05-10T12:18:00;11.50;63.20
80695;DHT22;70059;42.702;23.312;2023-05-10T12:20:29;11.60;63.40
80695;DHT22;70059;42.702;23.312;2023-05-10T12:22:58;11.70;62.50
80695;DHT22;70059;42.702;23.312;2023-05-10T12:25:36;11.70;63.00
80695;DHT22;70059;42.702;23.312;2023-05-10T12:28:06;11.80;62.40
80695;DHT22;70059;42.702;23.312;2023-05-10T12:30:34;11.70;62.70
80695;DHT22;70059;42.702;23.312;2023-05-10T12:33:09;11.80;63.20
80695;DHT22;70059;42.702;23.312;2023-05-10T12:35:50;11.70;62.40
80695;DHT22;70059;42.702;23.312;2023-05-10T12:41:02;11.80;62.50
80695;DHT22;70059;42.702;23.312;2023-05-10T12:43:29;12.10;61.90
80695;DHT22;70059;42.702;23.312;2023-05-10T12:45:54;12.20;60.00
80695;DHT22;70059;42.702;23.312;2023-05-10T12:48:20;12.10;61.40
80695;DHT22;70059;42.702;23.312;2023-05-10T12:50:52;12.40;60.00
80695;DHT22;70059;42.702;23.312;2023-05-10T12:53:19;12.50;59.80
80695;DHT22;70059;42.702;23.312;2023-05-10T12:55:58;12.40;59.70
80695;DHT22;70059;42.702;23.312;2023-05-10T12:58:32;12.20;61.20
80695;DHT22;70059;42.702;23.312;2023-05-10T13:00:58;11.80;60.60
80695;DHT22;70059;42.702;23.312;2023-05-10T13:03:57;11.80;61.90
80695;DHT22;70059;42.702;23.312;2023-05-10T13:06:44;12.00;61.20
80695;DHT22;70059;42.702;23.312;2023-05-10T13:10:21;12.20;60.40
80695;DHT22;70059;42.702;23.312;2023-05-10T13:13:05;11.90;60.40
80695;DHT22;70059;42.702;23.312;2023-05-10T13:15:56;11.90;62.40
80695;DHT22;70059;42.702;23.312;2023-05-10T13:18:25;12.00;61.50
80695;DHT22;70059;42.702;23.312;2023-05-10T13:20:51;12.10;61.50
80695;DHT22;70059;42.702;23.312;2023-05-10T13:23:17;12.10;60.50
80695;DHT22;70059;42.702;23.312;2023-05-10T13:25:43;12.00;62.10
80695;DHT22;70059;42.702;23.312;2023-05-10T13:28:09;12.00;62.00
80695;DHT22;70059;42.702;23.312;2023-05-10T13:30:42;12.00;62.00
80695;DHT22;70059;42.702;23.312;2023-05-10T13:33:08;12.00;61.40
80695;DHT22;70059;42.702;23.312;2023-05-10T13:35:53;11.90;62.10
80695;DHT22;70059;42.702;23.312;2023-05-10T13:38:20;11.90;62.50
80695;DHT22;70059;42.702;23.312;2023-05-10T13:40:46;11.70;62.60
80695;DHT22;70059;42.702;23.312;2023-05-10T13:43:13;11.70;63.00
80695;DHT22;70059;42.702;23.312;2023-05-10T13:45:41;11.80;62.80
80695;DHT22;70059;42.702;23.312;2023-05-10T13:48:07;11.80;62.70
80695;DHT22;70059;42.702;23.312;2023-05-10T13:50:33;11.90;62.90
80695;DHT22;70059;42.702;23.312;2023-05-10T13:53:11;12.00;61.90
80695;DHT22;70059;42.702;23.312;2023-05-10T13:58:59;12.10;61.30
80695;DHT22;70059;42.702;23.312;2023-05-10T14:01:32;12.00;61.70
80695;DHT22;70059;42.702;23.312;2023-05-10T14:04:07;12.00;61.20
80695;DHT22;70059;42.702;23.312;2023-05-10T14:06:35;11.90;62.00
80695;DHT22;70059;42.702;23.312;2023-05-10T14:09:04;11.80;61.80
80695;DHT22;70059;42.702;23.312;2023-05-10T14:11:29;11.80;62.50
80695;DHT22;70059;42.702;23.312;2023-05-10T14:14:03;11.70;62.90
80695;DHT22;70059;42.702;23.312;2023-05-10T14:19:05;11.50;63.40
80695;DHT22;70059;42.702;23.312;2023-05-10T14:21:31;11.50;64.60
80695;DHT22;70059;42.702;23.312;2023-05-10T14:24:04;11.60;64.20
80695;DHT22;70059;42.702;23.312;2023-05-10T14:26:33;11.50;64.00
80695;DHT22;70059;42.702;23.312;2023-05-10T14:29:16;11.50;64.10
80695;DHT22;70059;42.702;23.312;2023-05-10T14:31:50;11.40;63.80
80695;DHT22;70059;42.702;23.312;2023-05-10T14:34:21;11.40;64.40
80695;DHT22;70059;42.702;23.312;2023-05-10T14:36:51;11.30;64.60
80695;DHT22;70059;42.702;23.312;2023-05-10T14:39:20;11.50;64.70
80695;DHT22;70059;42.702;23.312;2023-05-10T14:41:46;11.40;64.20
80695;DHT22;70059;42.702;23.312;2023-05-10T14:44:13;11.50;64.70
80695;DHT22;70059;42.702;23.312;2023-05-10T14:46:41;11.50;64.50
80695;DHT22;70059;42.702;23.312;2023-05-10T14:49:07;11.60;64.10
80695;DHT22;70059;42.702;23.312;2023-05-10T14:51:44;11.50;64.00
80695;DHT22;70059;42.702;23.312;2023-05-10T14:54:15;11.60;64.00
80695;DHT22;70059;42.702;23.312;2023-05-10T14:56:41;11.50;64.40
80695;DHT22;70059;42.702;23.312;2023-05-10T14:59:07;11.70;64.50
80695;DHT22;70059;42.702;23.312;2023-05-10T15:01:34;11.80;64.40
80695;DHT22;70059;42.702;23.312;2023-05-10T15:04:09;11.70;63.40
80695;DHT22;70059;42.702;23.312;2023-05-10T15:07:02;11.80;64.00
80695;DHT22;70059;42.702;23.312;2023-05-10T15:09:46;11.70;63.50
80695;DHT22;70059;42.702;23.312;2023-05-10T15:14:42;11.60;64.00
80695;DHT22;70059;42.702;23.312;2023-05-10T15:17:08;11.50;64.20
80695;DHT22;70059;42.702;23.312;2023-05-10T15:22:56;11.80;63.50
80695;DHT22;70059;42.702;23.312;2023-05-10T15:25:23;11.90;62.80
80695;DHT22;70059;42.702;23.312;2023-05-10T15:31:51;11.90;62.30
80695;DHT22;70059;42.702;23.312;2023-05-10T15:34:18;11.90;62.20
80695;DHT22;70059;42.702;23.312;2023-05-10T15:36:44;11.70;62.60
80695;DHT22;70059;42.702;23.312;2023-05-10T15:39:10;11.50;63.10
80695;DHT22;70059;42.702;23.312;2023-05-10T15:41:36;11.50;63.30
80695;DHT22;70059;42.702;23.312;2023-05-10T15:44:02;11.60;63.30
80695;DHT22;70059;42.702;23.312;2023-05-10T15:46:28;11.60;63.10
80695;DHT22;70059;42.702;23.312;2023-05-10T15:48:54;11.60;63.20
80695;DHT22;70059;42.702;23.312;2023-05-10T15:51:20;11.60;63.00
80695;DHT22;70059;42.702;23.312;2023-05-10T15:53:48;11.60;63.20
80695;DHT22;70059;42.702;23.312;2023-05-10T15:56:14;11.50;63.50
80695;DHT22;70059;42.702;23.312;2023-05-10T15:58:40;11.50;63.90
80695;DHT22;70059;42.702;23.312;2023-05-10T16:01:06;11.50;63.60
80695;DHT22;70059;42.702;23.312;2023-05-10T16:03:35;11.40;63.90
80695;DHT22;70059;42.702;23.312;2023-05-10T16:06:00;11.40;63.90
80695;DHT22;70059;42.702;23.312;2023-05-10T16:08:29;11.40;63.80
80695;DHT22;70059;42.702;23.312;2023-05-10T16:10:56;11.40;63.90
80695;DHT22;70059;42.702;23.312;2023-05-10T16:13:22;11.40;63.90
80695;DHT22;70059;42.702;23.312;2023-05-10T16:15:47;11.40;64.00
80695;DHT22;70059;42.702;23.312;2023-05-10T16:18:13;11.50;64.30
80695;DHT22;70059;42.702;23.312;2023-05-10T16:20:39;11.50;64.00
80695;DHT22;70059;42.702;23.312;2023-05-10T16:23:06;11.40;64.00
80695;DHT22;70059;42.702;23.312;2023-05-10T16:25:32;11.40;64.40
80695;DHT22;70059;42.702;23.312;2023-05-10T16:27:59;11.30;64.60
80695;DHT22;70059;42.702;23.312;2023-05-10T16:30:25;11.40;64.60
80695;DHT22;70059;42.702;23.312;2023-05-10T16:32:52;11.30;64.20
80695;DHT22;70059;42.702;23.312;2023-05-10T16:35:19;11.40;64.70
80695;DHT22;70059;42.702;23.312;2023-05-10T16:37:45;11.40;63.70
80695;DHT22;70059;42.702;23.312;2023-05-10T16:40:10;11.50;63.90
80695;DHT22;70059;42.702;23.312;2023-05-10T16:42:36;11.50;63.90
80695;DHT22;70059;42.702;23.312;2023-05-10T16:45:03;11.40;64.10
80695;DHT22;70059;42.702;23.312;2023-05-10T16:47:36;11.30;64.70
80695;DHT22;70059;42.702;23.312;2023-05-10T16:50:06;11.30;64.20
80695;DHT22;70059;42.702;23.312;2023-05-10T16:52:33;11.40;64.40
80695;DHT22;70059;42.702;23.312;2023-05-10T16:54:59;11.30;64.10
80695;DHT22;70059;42.702;23.312;2023-05-10T16:57:26;11.30;64.20
80695;DHT22;70059;42.702;23.312;2023-05-10T16:59:52;11.30;63.90
80695;DHT22;70059;42.702;23.312;2023-05-10T17:02:18;11.20;63.90
80695;DHT22;70059;42.702;23.312;2023-05-10T17:04:44;11.10;64.60
80695;DHT22;70059;42.702;23.312;2023-05-10T17:07:16;11.20;64.60
80695;DHT22;70059;42.702;23.312;2023-05-10T17:09:43;11.30;64.60
80695;DHT22;70059;42.702;23.312;2023-05-10T17:12:09;11.40;64.10
80695;DHT22;70059;42.702;23.312;2023-05-10T17:14:36;11.30;63.60
80695;DHT22;70059;42.702;23.312;2023-05-10T17:17:02;11.30;63.80
80695;DHT22;70059;42.702;23.312;2023-05-10T17:19:28;11.30;63.40
80695;DHT22;70059;42.702;23.312;2023-05-10T17:21:54;11.20;63.80
80695;DHT22;70059;42.702;23.312;2023-05-10T17:24:20;11.10;64.20
80695;DHT22;70059;42.702;23.312;2023-05-10T17:26:45;11.10;64.50
80695;DHT22;70059;42.702;23.312;2023-05-10T17:29:11;11.10;64.10
80695;DHT22;70059;42.702;23.312;2023-05-10T17:31:38;11.10;64.10
80695;DHT22;70059;42.702;23.312;2023-05-10T17:34:04;11.10;64.20
80695;DHT22;70059;42.702;23.312;2023-05-10T17:36:30;11.00;64.40
80695;DHT22;70059;42.702;23.312;2023-05-10T17:38:55;11.10;64.20
80695;DHT22;70059;42.702;23.312;2023-05-10T17:41:21;11.10;63.50
80695;DHT22;70059;42.702;23.312;2023-05-10T17:43:47;11.10;63.40
80695;DHT22;70059;42.702;23.312;2023-05-10T17:46:13;11.20;63.40
80695;DHT22;70059;42.702;23.312;2023-05-10T17:48:38;11.20;63.30
80695;DHT22;70059;42.702;23.312;2023-05-10T17:51:11;11.10;63.20
80695;DHT22;70059;42.702;23.312;2023-05-10T17:53:38;11.10;63.60
80695;DHT22;70059;42.702;23.312;2023-05-10T17:56:04;11.10;63.40
80695;DHT22;70059;42.702;23.312;2023-05-10T17:58:30;11.10;63.60
80695;DHT22;70059;42.702;23.312;2023-05-10T18:00:55;11.10;63.80
80695;DHT22;70059;42.702;23.312;2023-05-10T18:03:24;11.10;63.60
80695;DHT22;70059;42.702;23.312;2023-05-10T18:05:50;11.10;63.20
80695;DHT22;70059;42.702;23.312;2023-05-10T18:08:16;11.10;63.60
80695;DHT22;70059;42.702;23.312;2023-05-10T18:10:47;11.10;63.10
80695;DHT22;70059;42.702;23.312;2023-05-10T18:13:12;11.20;63.00
80695;DHT22;70059;42.702;23.312;2023-05-10T18:15:38;11.20;63.00
80695;DHT22;70059;42.702;23.312;2023-05-10T18:18:04;11.20;63.30
80695;DHT22;70059;42.702;23.312;2023-05-10T18:20:30;11.10;63.30
80695;DHT22;70059;42.702;23.312;2023-05-10T18:22:56;11.10;63.30
80695;DHT22;70059;42.702;23.312;2023-05-10T18:25:23;11.00;63.50
80695;DHT22;70059;42.702;23.312;2023-05-10T18:27:49;11.10;63.70
80695;DHT22;70059;42.702;23.312;2023-05-10T18:30:21;11.10;63.30
80695;DHT22;70059;42.702;23.312;2023-05-10T18:32:47;11.10;63.60
80695;DHT22;70059;42.702;23.312;2023-05-10T18:35:13;11.10;63.20
80695;DHT22;70059;42.702;23.312;2023-05-10T18:37:39;11.10;63.30
80695;DHT22;70059;42.702;23.312;2023-05-10T18:40:05;11.10;63.30
80695;DHT22;70059;42.702;23.312;2023-05-10T18:42:35;11.10;63.30
80695;DHT22;70059;42.702;23.312;2023-05-10T18:45:01;11.10;63.30
80695;DHT22;70059;42.702;23.312;2023-05-10T18:47:28;11.20;63.00
80695;DHT22;70059;42.702;23.312;2023-05-10T18:49:54;11.10;63.10
80695;DHT22;70059;42.702;23.312;2023-05-10T18:52:20;11.20;63.20